sensor_id;sensor_type;location;lat;lon;timestamp;P1;durP1;ratioP1;P2;durP2;ratioP2
11078;SDS011;5592;49.234;7.268;2023-05-27T00:00:03;10.63;;;4.23;;
11078;SDS011;5592;49.234;7.268;2023-05-27T00:02:31;13.73;;;4.00;;
11078;SDS011;5592;49.234;7.268;2023-05-27T00:04:57;12.80;;;4.00;;
11078;SDS011;5592;49.234;7.268;2023-05-27T00:07:22;15.57;;;4.70;;
11078;SDS011;5592;49.234;7.268;2023-05-27T00:09:48;12.30;;;4.33;;
11078;SDS011;5592;49.234;7.268;2023-05-27T00:12:14;13.20;;;4.30;;
11078;SDS011;5592;49.234;7.268;2023-05-27T00:14:40;13.73;;;4.37;;
11078;SDS011;5592;49.234;7.268;2023-05-27T00:17:05;12.37;;;3.77;;
11078;SDS011;5592;49.234;7.268;2023-05-27T00:19:34;13.07;;;4.00;;
11078;SDS011;5592;49.234;7.268;2023-05-27T00:21:59;14.57;;;4.30;;
11078;SDS011;5592;49.234;7.268;2023-05-27T00:24:25;15.87;;;3.93;;
11078;SDS011;5592;49.234;7.268;2023-05-27T00:26:50;7.03;;;3.03;;
11078;SDS011;5592;49.234;7.268;2023-05-27T00:29:16;13.70;;;3.77;;
11078;SDS011;5592;49.234;7.268;2023-05-27T00:31:42;10.73;;;4.03;;
11078;SDS011;5592;49.234;7.268;2023-05-27T00:34:08;9.00;;;3.57;;
11078;SDS011;5592;49.234;7.268;2023-05-27T00:36:33;15.10;;;3.53;;
11078;SDS011;5592;49.234;7.268;2023-05-27T00:39:00;8.90;;;2.93;;
11078;SDS011;5592;49.234;7.268;2023-05-27T00:41:26;9.07;;;3.83;;
11078;SDS011;5592;49.234;7.268;2023-05-27T00:43:52;7.23;;;2.60;;
11078;SDS011;5592;49.234;7.268;2023-05-27T00:46:18;15.50;;;4.17;;
11078;SDS011;5592;49.234;7.268;2023-05-27T00:48:45;10.03;;;3.63;;
11078;SDS011;5592;49.234;7.268;2023-05-27T00:51:12;11.10;;;3.73;;
11078;SDS011;5592;49.234;7.268;2023-05-27T00:53:41;7.07;;;2.90;;
11078;SDS011;5592;49.234;7.268;2023-05-27T00:56:11;15.83;;;3.33;;
11078;SDS011;5592;49.234;7.268;2023-05-27T00:58:40;14.70;;;3.70;;
11078;SDS011;5592;49.234;7.268;2023-05-27T01:01:07;7.80;;;3.30;;
11078;SDS011;5592;49.234;7.268;2023-05-27T01:03:32;12.67;;;3.53;;
11078;SDS011;5592;49.234;7.268;2023-05-27T01:09:01;9.63;;;3.47;;
11078;SDS011;5592;49.234;7.268;2023-05-27T01:12:16;10.63;;;2.93;;
11078;SDS011;5592;49.234;7.268;2023-05-27T01:14:43;10.67;;;4.27;;
11078;SDS011;5592;49.234;7.268;2023-05-27T01:17:10;10.83;;;4.57;;
11078;SDS011;5592;49.234;7.268;2023-05-27T01:19:41;6.97;;;3.30;;
11078;SDS011;5592;49.234;7.268;2023-05-27T01:22:11;9.53;;;3.67;;
11078;SDS011;5592;49.234;7.268;2023-05-27T01:24:38;8.93;;;2.77;;
11078;SDS011;5592;49.234;7.268;2023-05-27T01:27:06;13.40;;;4.20;;
11078;SDS011;5592;49.234;7.268;2023-05-27T01:29:33;10.13;;;3.70;;
11078;SDS011;5592;49.234;7.268;2023-05-27T01:32:03;9.33;;;3.13;;
11078;SDS011;5592;49.234;7.268;2023-05-27T01:34:46;9.73;;;3.37;;
11078;SDS011;5592;49.234;7.268;2023-05-27T01:37:21;12.53;;;4.03;;
11078;SDS011;5592;49.234;7.268;2023-05-27T01:39:50;16.03;;;3.80;;
11078;SDS011;5592;49.234;7.268;2023-05-27T01:42:17;8.97;;;3.27;;
11078;SDS011;5592;49.234;7.268;2023-05-27T01:44:44;14.20;;;3.73;;
11078;SDS011;5592;49.234;7.268;2023-05-27T01:47:10;10.30;;;2.80;;
11078;SDS011;5592;49.234;7.268;2023-05-27T01:49:36;15.47;;;3.60;;
11078;SDS011;5592;49.234;7.268;2023-05-27T01:52:04;6.47;;;2.90;;
11078;SDS011;5592;49.234;7.268;2023-05-27T01:54:30;7.77;;;3.33;;
11078;SDS011;5592;49.234;7.268;2023-05-27T01:56:56;12.27;;;3.90;;
11078;SDS011;5592;49.234;7.268;2023-05-27T01:59:22;14.87;;;3.30;;
11078;SDS011;5592;49.234;7.268;2023-05-27T02:01:48;15.20;;;3.50;;
11078;SDS011;5592;49.234;7.268;2023-05-27T02:04:13;18.37;;;3.30;;
11078;SDS011;5592;49.234;7.268;2023-05-27T02:06:39;12.70;;;3.70;;
11078;SDS011;5592;49.234;7.268;2023-05-27T02:09:05;9.93;;;3.20;;
11078;SDS011;5592;49.234;7.268;2023-05-27T02:11:31;16.13;;;3.40;;
11078;SDS011;5592;49.234;7.268;2023-05-27T02:13:57;15.57;;;3.60;;
11078;SDS011;5592;49.234;7.268;2023-05-27T02:16:24;15.03;;;3.23;;
11078;SDS011;5592;49.234;7.268;2023-05-27T02:18:50;11.40;;;3.30;;
11078;SDS011;5592;49.234;7.268;2023-05-27T02:21:16;15.67;;;3.13;;
11078;SDS011;5592;49.234;7.268;2023-05-27T02:23:42;8.13;;;2.97;;
11078;SDS011;5592;49.234;7.268;2023-05-27T02:26:07;14.20;;;3.57;;
11078;SDS011;5592;49.234;7.268;2023-05-27T02:28:33;12.77;;;5.00;;
11078;SDS011;5592;49.234;7.268;2023-05-27T02:30:59;13.73;;;3.40;;
11078;SDS011;5592;49.234;7.268;2023-05-27T02:33:28;14.73;;;3.77;;
11078;SDS011;5592;49.234;7.268;2023-05-27T02:35:53;11.70;;;3.53;;
11078;SDS011;5592;49.234;7.268;2023-05-27T02:38:19;16.10;;;3.53;;
11078;SDS011;5592;49.234;7.268;2023-05-27T02:40:45;7.17;;;2.80;;
11078;SDS011;5592;49.234;7.268;2023-05-27T02:43:11;9.80;;;3.63;;
11078;SDS011;5592;49.234;7.268;2023-05-27T02:45:36;7.43;;;2.50;;
11078;SDS011;5592;49.234;7.268;2023-05-27T02:48:02;11.70;;;3.47;;
11078;SDS011;5592;49.234;7.268;2023-05-27T02:50:28;14.40;;;4.17;;
11078;SDS011;5592;49.234;7.268;2023-05-27T02:52:54;13.57;;;4.60;;
11078;SDS011;5592;49.234;7.268;2023-05-27T02:55:20;11.57;;;3.10;;
11078;SDS011;5592;49.234;7.268;2023-05-27T02:57:45;12.30;;;3.67;;
11078;SDS011;5592;49.234;7.268;2023-05-27T03:00:11;12.50;;;3.60;;
11078;SDS011;5592;49.234;7.268;2023-05-27T03:02:38;17.23;;;5.03;;
11078;SDS011;5592;49.234;7.268;2023-05-27T03:05:04;15.17;;;4.00;;
11078;SDS011;5592;49.234;7.268;2023-05-27T03:07:30;13.57;;;3.90;;
11078;SDS011;5592;49.234;7.268;2023-05-27T03:09:56;11.33;;;3.60;;
11078;SDS011;5592;49.234;7.268;2023-05-27T03:12:22;8.43;;;3.47;;
11078;SDS011;5592;49.234;7.268;2023-05-27T03:14:48;9.37;;;3.50;;
11078;SDS011;5592;49.234;7.268;2023-05-27T03:17:14;8.40;;;3.17;;
11078;SDS011;5592;49.234;7.268;2023-05-27T03:19:40;13.53;;;3.77;;
11078;SDS011;5592;49.234;7.268;2023-05-27T03:22:06;10.80;;;3.40;;
11078;SDS011;5592;49.234;7.268;2023-05-27T03:24:35;11.63;;;4.00;;
11078;SDS011;5592;49.234;7.268;2023-05-27T03:27:01;12.03;;;3.20;;
11078;SDS011;5592;49.234;7.268;2023-05-27T03:29:28;10.93;;;3.50;;
11078;SDS011;5592;49.234;7.268;2023-05-27T03:31:54;7.67;;;3.17;;
11078;SDS011;5592;49.234;7.268;2023-05-27T03:34:23;14.73;;;3.40;;
11078;SDS011;5592;49.234;7.268;2023-05-27T03:36:48;17.67;;;4.17;;
11078;SDS011;5592;49.234;7.268;2023-05-27T03:39:15;13.53;;;3.70;;
11078;SDS011;5592;49.234;7.268;2023-05-27T03:41:42;14.43;;;4.10;;
11078;SDS011;5592;49.234;7.268;2023-05-27T03:44:08;12.80;;;3.33;;
11078;SDS011;5592;49.234;7.268;2023-05-27T03:46:34;12.97;;;3.53;;
11078;SDS011;5592;49.234;7.268;2023-05-27T03:49:00;12.23;;;3.80;;
11078;SDS011;5592;49.234;7.268;2023-05-27T03:51:26;12.87;;;3.37;;
11078;SDS011;5592;49.234;7.268;2023-05-27T03:53:52;17.47;;;3.73;;
11078;SDS011;5592;49.234;7.268;2023-05-27T03:56:17;6.63;;;2.70;;
11078;SDS011;5592;49.234;7.268;2023-05-27T03:58:43;9.90;;;3.50;;
11078;SDS011;5592;49.234;7.268;2023-05-27T04:01:09;12.23;;;3.53;;
11078;SDS011;5592;49.234;7.268;2023-05-27T04:03:35;19.53;;;3.60;;
11078;SDS011;5592;49.234;7.268;2023-05-27T04:06:02;11.53;;;3.40;;
11078;SDS011;5592;49.234;7.268;2023-05-27T04:08:27;9.43;;;3.40;;
11078;SDS011;5592;49.234;7.268;2023-05-27T04:10:54;13.20;;;3.13;;
11078;SDS011;5592;49.234;7.268;2023-05-27T04:13:20;15.60;;;3.60;;
11078;SDS011;5592;49.234;7.268;2023-05-27T04:15:45;13.60;;;3.70;;
11078;SDS011;5592;49.234;7.268;2023-05-27T04:18:11;11.80;;;3.90;;
11078;SDS011;5592;49.234;7.268;2023-05-27T04:20:38;13.17;;;3.60;;
11078;SDS011;5592;49.234;7.268;2023-05-27T04:23:05;10.20;;;3.30;;
11078;SDS011;5592;49.234;7.268;2023-05-27T04:25:31;9.50;;;3.93;;
11078;SDS011;5592;49.234;7.268;2023-05-27T04:27:59;16.83;;;3.73;;
11078;SDS011;5592;49.234;7.268;2023-05-27T04:30:25;10.60;;;3.60;;
11078;SDS011;5592;49.234;7.268;2023-05-27T04:32:51;9.83;;;4.03;;
11078;SDS011;5592;49.234;7.268;2023-05-27T04:35:17;9.93;;;3.50;;
11078;SDS011;5592;49.234;7.268;2023-05-27T04:37:43;11.70;;;4.60;;
11078;SDS011;5592;49.234;7.268;2023-05-27T04:40:09;11.93;;;3.27;;
11078;SDS011;5592;49.234;7.268;2023-05-27T04:42:36;9.50;;;3.50;;
11078;SDS011;5592;49.234;7.268;2023-05-27T04:45:04;11.53;;;3.20;;
11078;SDS011;5592;49.234;7.268;2023-05-27T04:47:34;9.50;;;3.47;;
11078;SDS011;5592;49.234;7.268;2023-05-27T04:50:02;12.87;;;4.00;;
11078;SDS011;5592;49.234;7.268;2023-05-27T04:52:28;8.50;;;4.20;;
11078;SDS011;5592;49.234;7.268;2023-05-27T04:54:54;11.37;;;3.67;;
11078;SDS011;5592;49.234;7.268;2023-05-27T04:57:23;6.60;;;3.57;;
11078;SDS011;5592;49.234;7.268;2023-05-27T04:59:49;11.07;;;3.07;;
11078;SDS011;5592;49.234;7.268;2023-05-27T05:02:37;6.93;;;2.93;;
11078;SDS011;5592;49.234;7.268;2023-05-27T05:05:05;10.27;;;3.60;;
11078;SDS011;5592;49.234;7.268;2023-05-27T05:07:33;10.67;;;4.20;;
11078;SDS011;5592;49.234;7.268;2023-05-27T05:10:03;13.13;;;3.30;;
11078;SDS011;5592;49.234;7.268;2023-05-27T05:12:32;11.50;;;4.30;;
11078;SDS011;5592;49.234;7.268;2023-05-27T05:14:58;9.03;;;3.40;;
11078;SDS011;5592;49.234;7.268;2023-05-27T05:17:24;10.33;;;2.90;;
11078;SDS011;5592;49.234;7.268;2023-05-27T05:19:51;9.43;;;3.57;;
11078;SDS011;5592;49.234;7.268;2023-05-27T05:22:17;11.50;;;3.57;;
11078;SDS011;5592;49.234;7.268;2023-05-27T05:24:48;12.40;;;4.17;;
11078;SDS011;5592;49.234;7.268;2023-05-27T05:27:14;9.30;;;3.80;;
11078;SDS011;5592;49.234;7.268;2023-05-27T05:29:40;8.03;;;3.80;;
11078;SDS011;5592;49.234;7.268;2023-05-27T05:32:06;6.70;;;3.23;;
11078;SDS011;5592;49.234;7.268;2023-05-27T05:34:33;14.20;;;4.53;;
11078;SDS011;5592;49.234;7.268;2023-05-27T05:36:59;12.60;;;4.17;;
11078;SDS011;5592;49.234;7.268;2023-05-27T05:39:25;13.43;;;4.70;;
11078;SDS011;5592;49.234;7.268;2023-05-27T05:41:50;11.57;;;3.83;;
11078;SDS011;5592;49.234;7.268;2023-05-27T05:44:16;11.63;;;3.80;;
11078;SDS011;5592;49.234;7.268;2023-05-27T05:46:42;10.57;;;3.53;;
11078;SDS011;5592;49.234;7.268;2023-05-27T05:49:08;11.80;;;3.97;;
11078;SDS011;5592;49.234;7.268;2023-05-27T05:51:33;8.30;;;3.63;;
11078;SDS011;5592;49.234;7.268;2023-05-27T05:54:00;9.37;;;3.57;;
11078;SDS011;5592;49.234;7.268;2023-05-27T05:56:26;9.87;;;3.67;;
11078;SDS011;5592;49.234;7.268;2023-05-27T05:58:52;10.07;;;3.70;;
11078;SDS011;5592;49.234;7.268;2023-05-27T06:01:17;14.17;;;3.80;;
11078;SDS011;5592;49.234;7.268;2023-05-27T06:03:43;9.33;;;4.23;;
11078;SDS011;5592;49.234;7.268;2023-05-27T06:06:09;7.97;;;3.77;;
11078;SDS011;5592;49.234;7.268;2023-05-27T06:08:34;8.63;;;3.67;;
11078;SDS011;5592;49.234;7.268;2023-05-27T06:11:00;12.80;;;4.10;;
11078;SDS011;5592;49.234;7.268;2023-05-27T06:13:26;12.30;;;3.73;;
11078;SDS011;5592;49.234;7.268;2023-05-27T06:15:51;8.23;;;3.90;;
11078;SDS011;5592;49.234;7.268;2023-05-27T06:18:17;8.10;;;3.30;;
11078;SDS011;5592;49.234;7.268;2023-05-27T06:20:43;10.00;;;3.53;;
11078;SDS011;5592;49.234;7.268;2023-05-27T06:23:08;12.93;;;4.50;;
11078;SDS011;5592;49.234;7.268;2023-05-27T06:25:34;9.10;;;3.33;;
11078;SDS011;5592;49.234;7.268;2023-05-27T06:28:00;9.77;;;3.80;;
11078;SDS011;5592;49.234;7.268;2023-05-27T06:30:26;11.10;;;4.20;;
11078;SDS011;5592;49.234;7.268;2023-05-27T06:32:52;9.27;;;3.63;;
11078;SDS011;5592;49.234;7.268;2023-05-27T06:35:18;8.10;;;3.97;;
11078;SDS011;5592;49.234;7.268;2023-05-27T06:37:43;24.60;;;5.10;;
11078;SDS011;5592;49.234;7.268;2023-05-27T06:40:09;11.63;;;3.30;;
11078;SDS011;5592;49.234;7.268;2023-05-27T06:42:36;10.80;;;3.80;;
11078;SDS011;5592;49.234;7.268;2023-05-27T06:45:05;11.57;;;4.60;;
11078;SDS011;5592;49.234;7.268;2023-05-27T06:47:31;11.07;;;4.20;;
11078;SDS011;5592;49.234;7.268;2023-05-27T06:49:56;12.47;;;4.23;;
11078;SDS011;5592;49.234;7.268;2023-05-27T06:52:22;12.07;;;4.40;;
11078;SDS011;5592;49.234;7.268;2023-05-27T06:54:48;15.40;;;5.03;;
11078;SDS011;5592;49.234;7.268;2023-05-27T06:57:13;8.93;;;3.77;;
11078;SDS011;5592;49.234;7.268;2023-05-27T06:59:40;9.70;;;4.07;;
11078;SDS011;5592;49.234;7.268;2023-05-27T07:02:06;8.53;;;3.97;;
11078;SDS011;5592;49.234;7.268;2023-05-27T07:04:32;9.60;;;4.37;;
11078;SDS011;5592;49.234;7.268;2023-05-27T07:06:58;8.90;;;3.77;;
11078;SDS011;5592;49.234;7.268;2023-05-27T07:09:24;6.30;;;3.10;;
11078;SDS011;5592;49.234;7.268;2023-05-27T07:11:49;10.00;;;4.20;;
11078;SDS011;5592;49.234;7.268;2023-05-27T07:14:15;12.03;;;4.23;;
11078;SDS011;5592;49.234;7.268;2023-05-27T07:16:41;11.87;;;4.57;;
11078;SDS011;5592;49.234;7.268;2023-05-27T07:19:06;9.53;;;3.93;;
11078;SDS011;5592;49.234;7.268;2023-05-27T07:21:32;15.80;;;4.67;;
11078;SDS011;5592;49.234;7.268;2023-05-27T07:23:59;19.40;;;5.37;;
11078;SDS011;5592;49.234;7.268;2023-05-27T07:26:28;8.97;;;4.03;;
11078;SDS011;5592;49.234;7.268;2023-05-27T07:28:58;10.27;;;4.20;;
11078;SDS011;5592;49.234;7.268;2023-05-27T07:31:25;11.70;;;4.00;;
11078;SDS011;5592;49.234;7.268;2023-05-27T07:33:51;10.87;;;4.17;;
11078;SDS011;5592;49.234;7.268;2023-05-27T07:36:17;10.10;;;3.90;;
11078;SDS011;5592;49.234;7.268;2023-05-27T07:38:43;9.90;;;4.13;;
11078;SDS011;5592;49.234;7.268;2023-05-27T07:41:09;11.23;;;4.37;;
11078;SDS011;5592;49.234;7.268;2023-05-27T07:43:35;12.33;;;3.77;;
11078;SDS011;5592;49.234;7.268;2023-05-27T07:46:01;13.97;;;3.97;;
11078;SDS011;5592;49.234;7.268;2023-05-27T07:48:27;13.17;;;4.10;;
11078;SDS011;5592;49.234;7.268;2023-05-27T07:50:53;7.60;;;4.47;;
11078;SDS011;5592;49.234;7.268;2023-05-27T07:53:20;6.60;;;4.00;;
11078;SDS011;5592;49.234;7.268;2023-05-27T07:55:46;11.60;;;4.20;;
11078;SDS011;5592;49.234;7.268;2023-05-27T07:58:11;9.60;;;3.57;;
11078;SDS011;5592;49.234;7.268;2023-05-27T08:00:37;12.23;;;4.17;;
11078;SDS011;5592;49.234;7.268;2023-05-27T08:03:03;13.83;;;4.10;;
11078;SDS011;5592;49.234;7.268;2023-05-27T08:05:28;9.57;;;4.40;;
11078;SDS011;5592;49.234;7.268;2023-05-27T08:07:54;7.50;;;3.50;;
11078;SDS011;5592;49.234;7.268;2023-05-27T08:10:20;7.90;;;4.47;;
11078;SDS011;5592;49.234;7.268;2023-05-27T08:12:45;11.87;;;4.43;;
11078;SDS011;5592;49.234;7.268;2023-05-27T08:15:11;11.37;;;4.67;;
11078;SDS011;5592;49.234;7.268;2023-05-27T08:17:37;11.90;;;4.50;;
11078;SDS011;5592;49.234;7.268;2023-05-27T08:20:03;9.03;;;4.27;;
11078;SDS011;5592;49.234;7.268;2023-05-27T08:22:29;11.30;;;4.50;;
11078;SDS011;5592;49.234;7.268;2023-05-27T08:24:55;10.90;;;4.40;;
11078;SDS011;5592;49.234;7.268;2023-05-27T08:27:41;8.13;;;3.57;;
11078;SDS011;5592;49.234;7.268;2023-05-27T08:30:07;9.20;;;4.00;;
11078;SDS011;5592;49.234;7.268;2023-05-27T08:32:33;8.33;;;4.03;;
11078;SDS011;5592;49.234;7.268;2023-05-27T08:34:59;14.40;;;4.80;;
11078;SDS011;5592;49.234;7.268;2023-05-27T08:37:24;11.60;;;4.20;;
11078;SDS011;5592;49.234;7.268;2023-05-27T08:39:50;11.77;;;4.00;;
11078;SDS011;5592;49.234;7.268;2023-05-27T08:42:16;11.90;;;4.37;;
11078;SDS011;5592;49.234;7.268;2023-05-27T08:44:41;9.17;;;4.27;;
11078;SDS011;5592;49.234;7.268;2023-05-27T08:47:08;9.67;;;4.23;;
11078;SDS011;5592;49.234;7.268;2023-05-27T08:49:34;10.37;;;3.90;;
11078;SDS011;5592;49.234;7.268;2023-05-27T08:52:00;7.57;;;3.70;;
11078;SDS011;5592;49.234;7.268;2023-05-27T08:54:27;11.53;;;4.67;;
11078;SDS011;5592;49.234;7.268;2023-05-27T08:56:54;11.80;;;3.73;;
11078;SDS011;5592;49.234;7.268;2023-05-27T08:59:22;13.63;;;4.20;;
11078;SDS011;5592;49.234;7.268;2023-05-27T09:01:49;9.03;;;3.43;;
11078;SDS011;5592;49.234;7.268;2023-05-27T09:04:16;9.40;;;4.37;;
11078;SDS011;5592;49.234;7.268;2023-05-27T09:06:41;12.73;;;4.37;;
11078;SDS011;5592;49.234;7.268;2023-05-27T09:09:07;8.87;;;4.30;;
11078;SDS011;5592;49.234;7.268;2023-05-27T09:11:34;12.33;;;4.40;;
11078;SDS011;5592;49.234;7.268;2023-05-27T09:14:07;10.57;;;4.43;;
11078;SDS011;5592;49.234;7.268;2023-05-27T09:16:32;9.30;;;4.00;;
11078;SDS011;5592;49.234;7.268;2023-05-27T09:19:01;12.20;;;4.07;;
11078;SDS011;5592;49.234;7.268;2023-05-27T09:21:26;10.47;;;4.30;;
11078;SDS011;5592;49.234;7.268;2023-05-27T09:23:54;10.40;;;4.27;;
11078;SDS011;5592;49.234;7.268;2023-05-27T09:26:22;12.30;;;4.07;;
11078;SDS011;5592;49.234;7.268;2023-05-27T09:28:48;11.13;;;4.50;;
11078;SDS011;5592;49.234;7.268;2023-05-27T09:31:14;12.03;;;4.20;;
11078;SDS011;5592;49.234;7.268;2023-05-27T09:33:40;11.10;;;4.80;;
11078;SDS011;5592;49.234;7.268;2023-05-27T09:36:06;9.80;;;3.83;;
11078;SDS011;5592;49.234;7.268;2023-05-27T09:38:34;8.67;;;4.40;;
11078;SDS011;5592;49.234;7.268;2023-05-27T09:41:01;11.77;;;5.00;;
11078;SDS011;5592;49.234;7.268;2023-05-27T09:43:27;12.97;;;4.77;;
11078;SDS011;5592;49.234;7.268;2023-05-27T09:45:57;12.83;;;4.67;;
11078;SDS011;5592;49.234;7.268;2023-05-27T09:48:26;9.47;;;4.43;;
11078;SDS011;5592;49.234;7.268;2023-05-27T09:50:56;6.57;;;3.50;;
11078;SDS011;5592;49.234;7.268;2023-05-27T09:53:22;11.60;;;4.70;;
11078;SDS011;5592;49.234;7.268;2023-05-27T09:55:48;9.40;;;4.13;;
11078;SDS011;5592;49.234;7.268;2023-05-27T09:58:14;9.17;;;4.03;;
11078;SDS011;5592;49.234;7.268;2023-05-27T10:00:41;13.13;;;4.67;;
11078;SDS011;5592;49.234;7.268;2023-05-27T10:03:09;10.43;;;4.40;;
11078;SDS011;5592;49.234;7.268;2023-05-27T10:05:35;10.33;;;4.60;;
11078;SDS011;5592;49.234;7.268;2023-05-27T10:08:01;9.90;;;4.10;;
11078;SDS011;5592;49.234;7.268;2023-05-27T10:10:28;11.00;;;4.97;;
11078;SDS011;5592;49.234;7.268;2023-05-27T10:12:54;13.23;;;4.73;;
11078;SDS011;5592;49.234;7.268;2023-05-27T10:15:22;10.87;;;3.80;;
11078;SDS011;5592;49.234;7.268;2023-05-27T10:18:04;10.70;;;4.70;;
11078;SDS011;5592;49.234;7.268;2023-05-27T10:20:35;15.37;;;5.00;;
11078;SDS011;5592;49.234;7.268;2023-05-27T10:25:50;11.37;;;4.30;;
11078;SDS011;5592;49.234;7.268;2023-05-27T10:28:24;12.13;;;4.87;;
11078;SDS011;5592;49.234;7.268;2023-05-27T10:31:04;9.23;;;4.63;;
11078;SDS011;5592;49.234;7.268;2023-05-27T10:33:47;9.23;;;3.70;;
11078;SDS011;5592;49.234;7.268;2023-05-27T10:36:22;7.23;;;4.20;;
11078;SDS011;5592;49.234;7.268;2023-05-27T10:39:00;11.10;;;4.70;;
11078;SDS011;5592;49.234;7.268;2023-05-27T10:41:50;8.90;;;4.67;;
11078;SDS011;5592;49.234;7.268;2023-05-27T10:44:27;13.80;;;5.00;;
11078;SDS011;5592;49.234;7.268;2023-05-27T10:47:03;10.20;;;4.57;;
11078;SDS011;5592;49.234;7.268;2023-05-27T10:49:34;10.67;;;4.87;;
11078;SDS011;5592;49.234;7.268;2023-05-27T10:52:08;11.43;;;5.50;;
11078;SDS011;5592;49.234;7.268;2023-05-27T10:54:41;14.23;;;4.63;;
11078;SDS011;5592;49.234;7.268;2023-05-27T10:57:08;15.10;;;5.00;;
11078;SDS011;5592;49.234;7.268;2023-05-27T10:59:46;7.83;;;3.93;;
11078;SDS011;5592;49.234;7.268;2023-05-27T11:02:14;8.80;;;4.30;;
11078;SDS011;5592;49.234;7.268;2023-05-27T11:04:40;11.90;;;5.40;;
11078;SDS011;5592;49.234;7.268;2023-05-27T11:07:06;8.83;;;4.80;;
11078;SDS011;5592;49.234;7.268;2023-05-27T11:09:50;9.50;;;4.37;;
11078;SDS011;5592;49.234;7.268;2023-05-27T11:12:23;13.60;;;4.83;;
11078;SDS011;5592;49.234;7.268;2023-05-27T11:14:49;8.10;;;3.90;;
11078;SDS011;5592;49.234;7.268;2023-05-27T11:17:15;11.00;;;4.23;;
11078;SDS011;5592;49.234;7.268;2023-05-27T11:19:42;8.33;;;4.50;;
11078;SDS011;5592;49.234;7.268;2023-05-27T11:22:12;10.43;;;4.30;;
11078;SDS011;5592;49.234;7.268;2023-05-27T11:24:38;10.23;;;4.00;;
11078;SDS011;5592;49.234;7.268;2023-05-27T11:27:14;11.90;;;3.77;;
11078;SDS011;5592;49.234;7.268;2023-05-27T11:29:48;9.67;;;4.27;;
11078;SDS011;5592;49.234;7.268;2023-05-27T11:32:15;8.30;;;4.20;;
11078;SDS011;5592;49.234;7.268;2023-05-27T11:34:43;11.50;;;5.23;;
11078;SDS011;5592;49.234;7.268;2023-05-27T11:37:10;11.00;;;4.90;;
11078;SDS011;5592;49.234;7.268;2023-05-27T11:39:37;13.20;;;4.80;;
11078;SDS011;5592;49.234;7.268;2023-05-27T11:42:13;11.37;;;4.13;;
11078;SDS011;5592;49.234;7.268;2023-05-27T11:44:49;7.00;;;3.70;;
11078;SDS011;5592;49.234;7.268;2023-05-27T11:47:16;15.23;;;5.17;;
11078;SDS011;5592;49.234;7.268;2023-05-27T11:49:42;9.10;;;5.10;;
11078;SDS011;5592;49.234;7.268;2023-05-27T11:52:07;9.77;;;4.43;;
11078;SDS011;5592;49.234;7.268;2023-05-27T11:54:37;9.53;;;5.17;;
11078;SDS011;5592;49.234;7.268;2023-05-27T11:57:03;11.33;;;4.33;;
11078;SDS011;5592;49.234;7.268;2023-05-27T11:59:33;8.90;;;4.43;;
11078;SDS011;5592;49.234;7.268;2023-05-27T12:01:59;15.70;;;6.93;;
11078;SDS011;5592;49.234;7.268;2023-05-27T12:04:25;11.67;;;4.93;;
11078;SDS011;5592;49.234;7.268;2023-05-27T12:06:51;9.63;;;4.37;;
11078;SDS011;5592;49.234;7.268;2023-05-27T12:09:16;9.73;;;4.37;;
11078;SDS011;5592;49.234;7.268;2023-05-27T12:11:42;10.00;;;4.90;;
11078;SDS011;5592;49.234;7.268;2023-05-27T12:14:08;12.70;;;4.80;;
11078;SDS011;5592;49.234;7.268;2023-05-27T12:16:34;10.30;;;4.70;;
11078;SDS011;5592;49.234;7.268;2023-05-27T12:18:59;10.70;;;5.00;;
11078;SDS011;5592;49.234;7.268;2023-05-27T12:21:28;7.50;;;4.97;;
11078;SDS011;5592;49.234;7.268;2023-05-27T12:23:54;7.73;;;4.77;;
11078;SDS011;5592;49.234;7.268;2023-05-27T12:26:20;10.50;;;4.87;;
11078;SDS011;5592;49.234;7.268;2023-05-27T12:28:47;8.60;;;5.10;;
11078;SDS011;5592;49.234;7.268;2023-05-27T12:31:12;12.77;;;5.23;;
11078;SDS011;5592;49.234;7.268;2023-05-27T12:33:38;12.33;;;4.77;;
11078;SDS011;5592;49.234;7.268;2023-05-27T12:36:04;7.80;;;4.97;;
11078;SDS011;5592;49.234;7.268;2023-05-27T12:38:35;8.83;;;4.87;;
11078;SDS011;5592;49.234;7.268;2023-05-27T12:41:01;8.27;;;5.07;;
11078;SDS011;5592;49.234;7.268;2023-05-27T12:43:26;9.07;;;5.83;;
11078;SDS011;5592;49.234;7.268;2023-05-27T12:45:52;6.97;;;5.50;;
11078;SDS011;5592;49.234;7.268;2023-05-27T12:48:18;10.23;;;5.77;;
11078;SDS011;5592;49.234;7.268;2023-05-27T12:50:44;9.53;;;5.13;;
11078;SDS011;5592;49.234;7.268;2023-05-27T12:53:09;10.27;;;4.53;;
11078;SDS011;5592;49.234;7.268;2023-05-27T12:55:36;10.57;;;5.17;;
11078;SDS011;5592;49.234;7.268;2023-05-27T12:58:02;10.30;;;5.13;;
11078;SDS011;5592;49.234;7.268;2023-05-27T13:00:30;7.93;;;5.00;;
11078;SDS011;5592;49.234;7.268;2023-05-27T13:02:58;10.17;;;5.20;;
11078;SDS011;5592;49.234;7.268;2023-05-27T13:05:24;8.37;;;5.07;;
11078;SDS011;5592;49.234;7.268;2023-05-27T13:08:02;9.83;;;5.50;;
11078;SDS011;5592;49.234;7.268;2023-05-27T13:10:33;8.50;;;5.40;;
11078;SDS011;5592;49.234;7.268;2023-05-27T13:12:59;8.43;;;5.40;;
11078;SDS011;5592;49.234;7.268;2023-05-27T13:15:25;7.80;;;5.47;;
11078;SDS011;5592;49.234;7.268;2023-05-27T13:17:53;8.70;;;5.17;;
11078;SDS011;5592;49.234;7.268;2023-05-27T13:20:22;13.50;;;6.20;;
11078;SDS011;5592;49.234;7.268;2023-05-27T13:22:48;11.30;;;5.97;;
11078;SDS011;5592;49.234;7.268;2023-05-27T13:25:14;6.87;;;5.37;;
11078;SDS011;5592;49.234;7.268;2023-05-27T13:27:41;12.40;;;5.60;;
11078;SDS011;5592;49.234;7.268;2023-05-27T13:30:09;9.50;;;4.97;;
11078;SDS011;5592;49.234;7.268;2023-05-27T13:32:36;10.43;;;5.60;;
11078;SDS011;5592;49.234;7.268;2023-05-27T13:35:02;12.73;;;5.60;;
11078;SDS011;5592;49.234;7.268;2023-05-27T13:37:28;11.10;;;6.33;;
11078;SDS011;5592;49.234;7.268;2023-05-27T13:39:53;9.23;;;5.50;;
11078;SDS011;5592;49.234;7.268;2023-05-27T13:42:20;8.40;;;5.70;;
11078;SDS011;5592;49.234;7.268;2023-05-27T13:44:46;8.37;;;6.00;;
11078;SDS011;5592;49.234;7.268;2023-05-27T13:47:11;9.10;;;5.37;;
11078;SDS011;5592;49.234;7.268;2023-05-27T13:49:37;9.93;;;5.17;;
11078;SDS011;5592;49.234;7.268;2023-05-27T13:52:05;11.73;;;5.50;;
11078;SDS011;5592;49.234;7.268;2023-05-27T13:54:30;9.00;;;5.60;;
11078;SDS011;5592;49.234;7.268;2023-05-27T13:56:57;13.00;;;5.27;;
11078;SDS011;5592;49.234;7.268;2023-05-27T13:59:23;9.37;;;5.53;;
11078;SDS011;5592;49.234;7.268;2023-05-27T14:01:48;7.40;;;5.50;;
11078;SDS011;5592;49.234;7.268;2023-05-27T14:04:17;16.23;;;5.57;;
11078;SDS011;5592;49.234;7.268;2023-05-27T14:06:42;15.30;;;6.07;;
11078;SDS011;5592;49.234;7.268;2023-05-27T14:09:08;8.83;;;4.77;;
11078;SDS011;5592;49.234;7.268;2023-05-27T14:11:33;8.23;;;5.20;;
11078;SDS011;5592;49.234;7.268;2023-05-27T14:13:59;13.77;;;5.70;;
11078;SDS011;5592;49.234;7.268;2023-05-27T14:16:25;11.43;;;5.40;;
11078;SDS011;5592;49.234;7.268;2023-05-27T14:18:51;7.63;;;4.73;;
11078;SDS011;5592;49.234;7.268;2023-05-27T14:21:16;8.80;;;4.60;;
11078;SDS011;5592;49.234;7.268;2023-05-27T14:23:43;9.60;;;5.87;;
11078;SDS011;5592;49.234;7.268;2023-05-27T14:26:09;7.30;;;5.13;;
11078;SDS011;5592;49.234;7.268;2023-05-27T14:28:35;8.00;;;5.63;;
11078;SDS011;5592;49.234;7.268;2023-05-27T14:31:02;9.73;;;5.30;;
11078;SDS011;5592;49.234;7.268;2023-05-27T14:33:27;7.90;;;5.10;;
11078;SDS011;5592;49.234;7.268;2023-05-27T14:35:53;10.87;;;4.83;;
11078;SDS011;5592;49.234;7.268;2023-05-27T14:38:19;12.10;;;5.20;;
11078;SDS011;5592;49.234;7.268;2023-05-27T14:40:46;11.10;;;5.17;;
11078;SDS011;5592;49.234;7.268;2023-05-27T14:43:12;11.73;;;5.20;;
11078;SDS011;5592;49.234;7.268;2023-05-27T14:45:39;9.30;;;5.23;;
11078;SDS011;5592;49.234;7.268;2023-05-27T14:48:05;15.57;;;6.30;;
11078;SDS011;5592;49.234;7.268;2023-05-27T14:50:32;9.90;;;5.50;;
11078;SDS011;5592;49.234;7.268;2023-05-27T14:52:58;11.60;;;6.20;;
11078;SDS011;5592;49.234;7.268;2023-05-27T14:55:24;9.80;;;5.33;;
11078;SDS011;5592;49.234;7.268;2023-05-27T14:57:50;8.87;;;5.03;;